Terminal Aerodrome Forecast
Issued by NWS

Current Version | Previous Version | Text Only | Print | Product List | Glossary On
Versions: 1 2 3 4 5 6 7 8 9 10 11 12 13 14 15 16
228
FTUS41 KPBZ 101602 AAB
TAFFKL
TAF AMD
KFKL 101602Z 1016/1112 25008KT 2SM -SHSN BKN020
      TEMPO 1016/1017 3SM -SHSN
     FM101800 25009KT P6SM BKN040
     FM110900 19005KT 3SM -SN OVC015
     FM111100 18005KT 2SM -SN OVC010
      AMD NOT SKED=

USA.gov is the U.S. government's official web portal to all federal, state and local government web resources and services.